sensor_id;sensor_type;location;lat;lon;timestamp;P1;durP1;ratioP1;P2;durP2;ratioP2
78298;SDS011;67556;55.656;12.590;2023-03-11T00:01:13;2.60;;;2.33;;
78298;SDS011;67556;55.656;12.590;2023-03-11T00:03:40;3.13;;;2.25;;
78298;SDS011;67556;55.656;12.590;2023-03-11T00:06:07;2.67;;;2.15;;
78298;SDS011;67556;55.656;12.590;2023-03-11T00:08:33;4.10;;;2.33;;
78298;SDS011;67556;55.656;12.590;2023-03-11T00:11:00;3.00;;;2.25;;
78298;SDS011;67556;55.656;12.590;2023-03-11T00:13:27;3.20;;;2.72;;
78298;SDS011;67556;55.656;12.590;2023-03-11T00:15:54;2.60;;;2.22;;
78298;SDS011;67556;55.656;12.590;2023-03-11T00:18:23;2.75;;;2.42;;
78298;SDS011;67556;55.656;12.590;2023-03-11T00:20:51;3.22;;;2.70;;
78298;SDS011;67556;55.656;12.590;2023-03-11T00:23:18;4.13;;;2.67;;
78298;SDS011;67556;55.656;12.590;2023-03-11T00:25:45;3.05;;;2.45;;
78298;SDS011;67556;55.656;12.590;2023-03-11T00:28:12;3.42;;;2.40;;
78298;SDS011;67556;55.656;12.590;2023-03-11T00:30:40;3.85;;;2.53;;
78298;SDS011;67556;55.656;12.590;2023-03-11T00:33:08;3.13;;;2.45;;
78298;SDS011;67556;55.656;12.590;2023-03-11T00:35:38;3.97;;;2.78;;
78298;SDS011;67556;55.656;12.590;2023-03-11T00:38:05;3.97;;;2.28;;
78298;SDS011;67556;55.656;12.590;2023-03-11T00:40:34;4.28;;;3.25;;
78298;SDS011;67556;55.656;12.590;2023-03-11T00:43:01;3.25;;;2.40;;
78298;SDS011;67556;55.656;12.590;2023-03-11T00:45:29;4.40;;;2.60;;
78298;SDS011;67556;55.656;12.590;2023-03-11T00:47:56;3.45;;;2.83;;
78298;SDS011;67556;55.656;12.590;2023-03-11T00:50:24;4.00;;;2.70;;
78298;SDS011;67556;55.656;12.590;2023-03-11T00:52:54;3.55;;;2.65;;
78298;SDS011;67556;55.656;12.590;2023-03-11T00:55:21;4.55;;;3.03;;
78298;SDS011;67556;55.656;12.590;2023-03-11T00:57:50;3.45;;;2.58;;
78298;SDS011;67556;55.656;12.590;2023-03-11T01:00:18;3.35;;;2.78;;
78298;SDS011;67556;55.656;12.590;2023-03-11T01:02:46;2.90;;;2.50;;
78298;SDS011;67556;55.656;12.590;2023-03-11T01:05:12;4.28;;;3.03;;
78298;SDS011;67556;55.656;12.590;2023-03-11T01:07:39;3.97;;;2.78;;
78298;SDS011;67556;55.656;12.590;2023-03-11T01:10:08;3.30;;;2.53;;
78298;SDS011;67556;55.656;12.590;2023-03-11T01:12:36;4.53;;;2.55;;
78298;SDS011;67556;55.656;12.590;2023-03-11T01:15:03;4.03;;;2.85;;
78298;SDS011;67556;55.656;12.590;2023-03-11T01:17:30;3.53;;;2.53;;
78298;SDS011;67556;55.656;12.590;2023-03-11T01:19:57;2.88;;;2.50;;
78298;SDS011;67556;55.656;12.590;2023-03-11T01:22:23;4.03;;;3.08;;
78298;SDS011;67556;55.656;12.590;2023-03-11T01:24:50;2.88;;;2.42;;
78298;SDS011;67556;55.656;12.590;2023-03-11T01:27:18;3.22;;;2.67;;
78298;SDS011;67556;55.656;12.590;2023-03-11T01:29:45;3.42;;;2.28;;
78298;SDS011;67556;55.656;12.590;2023-03-11T01:32:11;3.25;;;2.47;;
78298;SDS011;67556;55.656;12.590;2023-03-11T01:34:38;3.08;;;2.22;;
78298;SDS011;67556;55.656;12.590;2023-03-11T01:37:04;3.15;;;2.35;;
78298;SDS011;67556;55.656;12.590;2023-03-11T01:39:31;3.10;;;2.33;;
78298;SDS011;67556;55.656;12.590;2023-03-11T01:41:57;3.28;;;2.60;;
78298;SDS011;67556;55.656;12.590;2023-03-11T01:44:25;5.85;;;2.90;;
78298;SDS011;67556;55.656;12.590;2023-03-11T01:49:55;4.00;;;2.45;;
78298;SDS011;67556;55.656;12.590;2023-03-11T01:52:21;5.25;;;2.80;;
78298;SDS011;67556;55.656;12.590;2023-03-11T01:54:49;4.43;;;3.00;;
78298;SDS011;67556;55.656;12.590;2023-03-11T01:57:15;2.95;;;2.50;;
78298;SDS011;67556;55.656;12.590;2023-03-11T01:59:45;4.00;;;2.72;;
78298;SDS011;67556;55.656;12.590;2023-03-11T02:02:16;4.25;;;2.67;;
78298;SDS011;67556;55.656;12.590;2023-03-11T02:04:45;3.50;;;2.53;;
78298;SDS011;67556;55.656;12.590;2023-03-11T02:07:12;4.22;;;3.03;;
78298;SDS011;67556;55.656;12.590;2023-03-11T02:09:39;3.13;;;2.63;;
78298;SDS011;67556;55.656;12.590;2023-03-11T02:12:06;4.43;;;2.80;;
78298;SDS011;67556;55.656;12.590;2023-03-11T02:14:37;3.03;;;2.38;;
78298;SDS011;67556;55.656;12.590;2023-03-11T02:17:08;3.78;;;2.55;;
78298;SDS011;67556;55.656;12.590;2023-03-11T02:19:37;3.05;;;2.75;;
78298;SDS011;67556;55.656;12.590;2023-03-11T02:22:17;4.35;;;2.95;;
78298;SDS011;67556;55.656;12.590;2023-03-11T02:24:44;4.40;;;2.78;;
78298;SDS011;67556;55.656;12.590;2023-03-11T02:27:17;4.28;;;2.58;;
78298;SDS011;67556;55.656;12.590;2023-03-11T02:29:47;2.70;;;2.42;;
78298;SDS011;67556;55.656;12.590;2023-03-11T02:32:15;3.67;;;2.75;;
78298;SDS011;67556;55.656;12.590;2023-03-11T02:34:43;6.68;;;2.50;;
78298;SDS011;67556;55.656;12.590;2023-03-11T02:37:11;2.95;;;2.65;;
78298;SDS011;67556;55.656;12.590;2023-03-11T02:39:41;3.75;;;2.38;;
78298;SDS011;67556;55.656;12.590;2023-03-11T02:42:10;3.38;;;3.05;;
78298;SDS011;67556;55.656;12.590;2023-03-11T02:44:40;3.80;;;2.47;;
78298;SDS011;67556;55.656;12.590;2023-03-11T02:47:10;2.33;;;2.10;;
78298;SDS011;67556;55.656;12.590;2023-03-11T02:49:37;3.47;;;2.47;;
78298;SDS011;67556;55.656;12.590;2023-03-11T02:52:06;3.78;;;3.17;;
78298;SDS011;67556;55.656;12.590;2023-03-11T02:54:32;3.63;;;2.75;;
78298;SDS011;67556;55.656;12.590;2023-03-11T02:56:59;4.65;;;2.92;;
78298;SDS011;67556;55.656;12.590;2023-03-11T02:59:25;4.65;;;3.00;;
78298;SDS011;67556;55.656;12.590;2023-03-11T03:01:53;3.13;;;2.40;;
78298;SDS011;67556;55.656;12.590;2023-03-11T03:04:20;4.38;;;2.92;;
78298;SDS011;67556;55.656;12.590;2023-03-11T03:06:47;3.95;;;2.70;;
78298;SDS011;67556;55.656;12.590;2023-03-11T03:09:13;5.05;;;2.80;;
78298;SDS011;67556;55.656;12.590;2023-03-11T03:11:40;5.45;;;3.00;;
78298;SDS011;67556;55.656;12.590;2023-03-11T03:14:07;4.35;;;2.65;;
78298;SDS011;67556;55.656;12.590;2023-03-11T03:16:33;4.00;;;2.83;;
78298;SDS011;67556;55.656;12.590;2023-03-11T03:19:01;3.58;;;2.83;;
78298;SDS011;67556;55.656;12.590;2023-03-11T03:21:28;3.40;;;2.67;;
78298;SDS011;67556;55.656;12.590;2023-03-11T03:23:55;3.03;;;2.63;;
78298;SDS011;67556;55.656;12.590;2023-03-11T03:26:21;4.00;;;2.78;;
78298;SDS011;67556;55.656;12.590;2023-03-11T03:28:48;3.25;;;2.83;;
78298;SDS011;67556;55.656;12.590;2023-03-11T03:31:14;3.75;;;3.22;;
78298;SDS011;67556;55.656;12.590;2023-03-11T03:33:40;4.05;;;3.13;;
78298;SDS011;67556;55.656;12.590;2023-03-11T03:36:10;3.80;;;2.50;;
78298;SDS011;67556;55.656;12.590;2023-03-11T03:38:38;3.55;;;2.90;;
78298;SDS011;67556;55.656;12.590;2023-03-11T03:41:05;3.88;;;3.25;;
78298;SDS011;67556;55.656;12.590;2023-03-11T03:43:32;3.55;;;2.50;;
78298;SDS011;67556;55.656;12.590;2023-03-11T03:45:59;4.18;;;2.83;;
78298;SDS011;67556;55.656;12.590;2023-03-11T03:48:27;3.70;;;3.13;;
78298;SDS011;67556;55.656;12.590;2023-03-11T03:50:54;4.05;;;2.90;;
78298;SDS011;67556;55.656;12.590;2023-03-11T03:53:23;6.60;;;2.88;;
78298;SDS011;67556;55.656;12.590;2023-03-11T03:55:49;3.28;;;2.55;;
78298;SDS011;67556;55.656;12.590;2023-03-11T03:58:15;3.80;;;3.15;;
78298;SDS011;67556;55.656;12.590;2023-03-11T04:03:17;4.75;;;2.80;;
78298;SDS011;67556;55.656;12.590;2023-03-11T04:05:43;3.00;;;2.63;;
78298;SDS011;67556;55.656;12.590;2023-03-11T04:08:10;4.28;;;3.05;;
78298;SDS011;67556;55.656;12.590;2023-03-11T04:10:38;2.75;;;2.33;;
78298;SDS011;67556;55.656;12.590;2023-03-11T04:13:04;4.72;;;2.97;;
78298;SDS011;67556;55.656;12.590;2023-03-11T04:15:31;3.95;;;2.95;;
78298;SDS011;67556;55.656;12.590;2023-03-11T04:17:58;3.25;;;2.95;;
78298;SDS011;67556;55.656;12.590;2023-03-11T04:20:24;3.55;;;2.95;;
78298;SDS011;67556;55.656;12.590;2023-03-11T04:22:51;3.47;;;2.83;;
78298;SDS011;67556;55.656;12.590;2023-03-11T04:25:17;4.95;;;3.17;;
78298;SDS011;67556;55.656;12.590;2023-03-11T04:27:45;3.58;;;2.65;;
78298;SDS011;67556;55.656;12.590;2023-03-11T04:30:14;5.03;;;3.10;;
78298;SDS011;67556;55.656;12.590;2023-03-11T04:32:41;4.85;;;2.78;;
78298;SDS011;67556;55.656;12.590;2023-03-11T04:35:07;4.15;;;2.72;;
78298;SDS011;67556;55.656;12.590;2023-03-11T04:37:34;3.70;;;2.83;;
78298;SDS011;67556;55.656;12.590;2023-03-11T04:40:00;3.58;;;2.85;;
78298;SDS011;67556;55.656;12.590;2023-03-11T04:42:27;4.85;;;3.05;;
78298;SDS011;67556;55.656;12.590;2023-03-11T04:44:55;2.90;;;2.60;;
78298;SDS011;67556;55.656;12.590;2023-03-11T04:47:21;3.55;;;2.63;;
78298;SDS011;67556;55.656;12.590;2023-03-11T04:49:48;4.35;;;3.22;;
78298;SDS011;67556;55.656;12.590;2023-03-11T04:52:14;3.17;;;2.88;;
78298;SDS011;67556;55.656;12.590;2023-03-11T04:54:41;3.28;;;2.70;;
78298;SDS011;67556;55.656;12.590;2023-03-11T04:57:07;4.05;;;3.25;;
78298;SDS011;67556;55.656;12.590;2023-03-11T04:59:34;2.92;;;2.60;;
78298;SDS011;67556;55.656;12.590;2023-03-11T05:02:02;3.95;;;2.95;;
78298;SDS011;67556;55.656;12.590;2023-03-11T05:04:28;4.97;;;2.88;;
78298;SDS011;67556;55.656;12.590;2023-03-11T05:06:54;2.80;;;2.45;;
78298;SDS011;67556;55.656;12.590;2023-03-11T05:09:21;5.07;;;2.58;;
78298;SDS011;67556;55.656;12.590;2023-03-11T05:11:47;3.63;;;2.75;;
78298;SDS011;67556;55.656;12.590;2023-03-11T05:14:14;2.92;;;2.53;;
78298;SDS011;67556;55.656;12.590;2023-03-11T05:16:40;3.67;;;2.72;;
78298;SDS011;67556;55.656;12.590;2023-03-11T05:19:08;3.83;;;2.50;;
78298;SDS011;67556;55.656;12.590;2023-03-11T05:21:48;5.32;;;2.65;;
78298;SDS011;67556;55.656;12.590;2023-03-11T05:24:14;3.10;;;2.60;;
78298;SDS011;67556;55.656;12.590;2023-03-11T05:26:41;3.25;;;2.65;;
78298;SDS011;67556;55.656;12.590;2023-03-11T05:29:07;3.72;;;2.88;;
78298;SDS011;67556;55.656;12.590;2023-03-11T05:31:34;3.33;;;2.60;;
78298;SDS011;67556;55.656;12.590;2023-03-11T05:34:00;3.67;;;2.85;;
78298;SDS011;67556;55.656;12.590;2023-03-11T05:36:28;3.22;;;2.22;;
78298;SDS011;67556;55.656;12.590;2023-03-11T05:38:54;4.63;;;2.65;;
78298;SDS011;67556;55.656;12.590;2023-03-11T05:41:21;3.38;;;2.97;;
78298;SDS011;67556;55.656;12.590;2023-03-11T05:43:47;4.15;;;2.95;;
78298;SDS011;67556;55.656;12.590;2023-03-11T05:46:14;4.90;;;3.22;;
78298;SDS011;67556;55.656;12.590;2023-03-11T05:48:41;4.22;;;3.00;;
78298;SDS011;67556;55.656;12.590;2023-03-11T05:51:07;4.38;;;3.03;;
78298;SDS011;67556;55.656;12.590;2023-03-11T05:53:36;4.25;;;3.17;;
78298;SDS011;67556;55.656;12.590;2023-03-11T05:56:03;4.13;;;2.70;;
78298;SDS011;67556;55.656;12.590;2023-03-11T05:58:30;3.95;;;3.05;;
78298;SDS011;67556;55.656;12.590;2023-03-11T06:00:57;3.75;;;3.22;;
78298;SDS011;67556;55.656;12.590;2023-03-11T06:03:24;3.58;;;3.08;;
78298;SDS011;67556;55.656;12.590;2023-03-11T06:05:52;3.67;;;2.95;;
78298;SDS011;67556;55.656;12.590;2023-03-11T06:08:18;5.55;;;3.30;;
78298;SDS011;67556;55.656;12.590;2023-03-11T06:10:47;4.63;;;3.22;;
78298;SDS011;67556;55.656;12.590;2023-03-11T06:13:13;4.53;;;3.35;;
78298;SDS011;67556;55.656;12.590;2023-03-11T06:15:40;4.15;;;3.30;;
78298;SDS011;67556;55.656;12.590;2023-03-11T06:18:06;4.63;;;3.13;;
78298;SDS011;67556;55.656;12.590;2023-03-11T06:20:32;4.10;;;3.42;;
78298;SDS011;67556;55.656;12.590;2023-03-11T06:22:59;6.30;;;4.05;;
78298;SDS011;67556;55.656;12.590;2023-03-11T06:25:25;4.45;;;4.05;;
78298;SDS011;67556;55.656;12.590;2023-03-11T06:27:53;3.95;;;3.53;;
78298;SDS011;67556;55.656;12.590;2023-03-11T06:30:20;4.25;;;3.47;;
78298;SDS011;67556;55.656;12.590;2023-03-11T06:32:46;5.22;;;3.85;;
78298;SDS011;67556;55.656;12.590;2023-03-11T06:35:13;6.00;;;3.70;;
78298;SDS011;67556;55.656;12.590;2023-03-11T06:37:40;4.90;;;3.65;;
78298;SDS011;67556;55.656;12.590;2023-03-11T06:40:07;4.47;;;3.63;;
78298;SDS011;67556;55.656;12.590;2023-03-11T06:42:35;4.82;;;4.05;;
78298;SDS011;67556;55.656;12.590;2023-03-11T06:45:03;5.75;;;3.83;;
78298;SDS011;67556;55.656;12.590;2023-03-11T06:47:30;4.20;;;3.75;;
78298;SDS011;67556;55.656;12.590;2023-03-11T06:49:56;4.43;;;3.55;;
78298;SDS011;67556;55.656;12.590;2023-03-11T06:52:23;5.25;;;3.95;;
78298;SDS011;67556;55.656;12.590;2023-03-11T06:54:49;4.75;;;3.90;;
78298;SDS011;67556;55.656;12.590;2023-03-11T06:57:16;5.53;;;4.05;;
78298;SDS011;67556;55.656;12.590;2023-03-11T06:59:42;4.53;;;3.80;;
78298;SDS011;67556;55.656;12.590;2023-03-11T07:02:11;6.00;;;3.67;;
78298;SDS011;67556;55.656;12.590;2023-03-11T07:04:39;4.72;;;3.92;;
78298;SDS011;67556;55.656;12.590;2023-03-11T07:07:05;6.10;;;3.95;;
78298;SDS011;67556;55.656;12.590;2023-03-11T07:09:31;5.38;;;3.97;;
78298;SDS011;67556;55.656;12.590;2023-03-11T07:11:58;4.22;;;3.70;;
78298;SDS011;67556;55.656;12.590;2023-03-11T07:14:24;4.60;;;4.07;;
78298;SDS011;67556;55.656;12.590;2023-03-11T07:16:51;4.40;;;3.67;;
78298;SDS011;67556;55.656;12.590;2023-03-11T07:19:19;4.82;;;4.20;;
78298;SDS011;67556;55.656;12.590;2023-03-11T07:21:45;4.78;;;3.88;;
78298;SDS011;67556;55.656;12.590;2023-03-11T07:24:12;4.68;;;3.53;;
78298;SDS011;67556;55.656;12.590;2023-03-11T07:26:39;4.70;;;3.35;;
78298;SDS011;67556;55.656;12.590;2023-03-11T07:29:06;4.47;;;3.58;;
78298;SDS011;67556;55.656;12.590;2023-03-11T07:31:34;5.45;;;3.70;;
78298;SDS011;67556;55.656;12.590;2023-03-11T07:34:03;5.97;;;3.80;;
78298;SDS011;67556;55.656;12.590;2023-03-11T07:36:37;5.07;;;3.67;;
78298;SDS011;67556;55.656;12.590;2023-03-11T07:39:05;5.50;;;3.53;;
78298;SDS011;67556;55.656;12.590;2023-03-11T07:41:32;5.28;;;3.60;;
78298;SDS011;67556;55.656;12.590;2023-03-11T07:44:00;5.47;;;3.25;;
78298;SDS011;67556;55.656;12.590;2023-03-11T07:46:28;5.35;;;3.95;;
78298;SDS011;67556;55.656;12.590;2023-03-11T07:48:56;5.53;;;3.72;;
78298;SDS011;67556;55.656;12.590;2023-03-11T07:51:23;4.13;;;3.72;;
78298;SDS011;67556;55.656;12.590;2023-03-11T07:53:52;5.13;;;3.58;;
78298;SDS011;67556;55.656;12.590;2023-03-11T07:56:21;5.65;;;3.65;;
78298;SDS011;67556;55.656;12.590;2023-03-11T07:58:49;4.75;;;3.75;;
78298;SDS011;67556;55.656;12.590;2023-03-11T08:01:17;4.40;;;3.90;;
78298;SDS011;67556;55.656;12.590;2023-03-11T08:03:45;5.22;;;3.63;;
78298;SDS011;67556;55.656;12.590;2023-03-11T08:06:13;5.03;;;4.20;;
78298;SDS011;67556;55.656;12.590;2023-03-11T08:08:41;6.10;;;5.40;;
78298;SDS011;67556;55.656;12.590;2023-03-11T08:11:10;6.40;;;4.55;;
78298;SDS011;67556;55.656;12.590;2023-03-11T08:13:37;5.93;;;4.55;;
78298;SDS011;67556;55.656;12.590;2023-03-11T08:16:04;5.40;;;3.67;;
78298;SDS011;67556;55.656;12.590;2023-03-11T08:18:33;4.93;;;4.07;;
78298;SDS011;67556;55.656;12.590;2023-03-11T08:21:03;5.22;;;3.65;;
78298;SDS011;67556;55.656;12.590;2023-03-11T08:23:29;5.43;;;3.85;;
78298;SDS011;67556;55.656;12.590;2023-03-11T08:25:56;5.20;;;3.65;;
78298;SDS011;67556;55.656;12.590;2023-03-11T08:28:24;5.15;;;4.05;;
78298;SDS011;67556;55.656;12.590;2023-03-11T08:30:51;5.65;;;3.92;;
78298;SDS011;67556;55.656;12.590;2023-03-11T08:33:18;4.38;;;3.67;;
78298;SDS011;67556;55.656;12.590;2023-03-11T08:35:45;5.22;;;3.42;;
78298;SDS011;67556;55.656;12.590;2023-03-11T08:38:12;6.43;;;4.00;;
78298;SDS011;67556;55.656;12.590;2023-03-11T08:40:38;4.53;;;3.78;;
78298;SDS011;67556;55.656;12.590;2023-03-11T08:43:04;5.75;;;3.85;;
78298;SDS011;67556;55.656;12.590;2023-03-11T08:45:38;5.90;;;4.30;;
78298;SDS011;67556;55.656;12.590;2023-03-11T08:48:22;5.70;;;3.88;;
78298;SDS011;67556;55.656;12.590;2023-03-11T08:50:49;4.50;;;3.45;;
78298;SDS011;67556;55.656;12.590;2023-03-11T08:53:16;4.68;;;3.80;;
78298;SDS011;67556;55.656;12.590;2023-03-11T08:55:42;7.65;;;4.82;;
78298;SDS011;67556;55.656;12.590;2023-03-11T08:58:08;5.63;;;3.88;;
78298;SDS011;67556;55.656;12.590;2023-03-11T09:00:37;6.97;;;4.05;;
78298;SDS011;67556;55.656;12.590;2023-03-11T09:03:03;4.57;;;4.05;;
78298;SDS011;67556;55.656;12.590;2023-03-11T09:05:30;5.95;;;4.10;;
78298;SDS011;67556;55.656;12.590;2023-03-11T09:07:56;5.72;;;4.22;;
78298;SDS011;67556;55.656;12.590;2023-03-11T09:10:23;5.28;;;3.92;;
78298;SDS011;67556;55.656;12.590;2023-03-11T09:12:49;7.32;;;4.15;;
78298;SDS011;67556;55.656;12.590;2023-03-11T09:15:17;6.40;;;4.28;;
78298;SDS011;67556;55.656;12.590;2023-03-11T09:17:45;5.05;;;3.75;;
78298;SDS011;67556;55.656;12.590;2023-03-11T09:20:12;6.25;;;4.07;;
78298;SDS011;67556;55.656;12.590;2023-03-11T09:22:39;4.55;;;4.10;;
78298;SDS011;67556;55.656;12.590;2023-03-11T09:25:06;6.55;;;3.28;;
78298;SDS011;67556;55.656;12.590;2023-03-11T09:27:33;7.97;;;3.92;;
78298;SDS011;67556;55.656;12.590;2023-03-11T09:29:59;5.72;;;3.95;;
78298;SDS011;67556;55.656;12.590;2023-03-11T09:32:26;4.47;;;3.00;;
78298;SDS011;67556;55.656;12.590;2023-03-11T09:34:54;4.88;;;3.08;;
78298;SDS011;67556;55.656;12.590;2023-03-11T09:37:22;5.18;;;3.28;;
78298;SDS011;67556;55.656;12.590;2023-03-11T09:39:48;5.28;;;3.30;;
78298;SDS011;67556;55.656;12.590;2023-03-11T09:42:17;5.60;;;3.05;;
78298;SDS011;67556;55.656;12.590;2023-03-11T09:44:48;4.57;;;3.00;;
78298;SDS011;67556;55.656;12.590;2023-03-11T09:50:25;3.00;;;2.35;;
78298;SDS011;67556;55.656;12.590;2023-03-11T09:52:57;2.47;;;2.28;;
78298;SDS011;67556;55.656;12.590;2023-03-11T09:58:08;2.42;;;2.22;;
78298;SDS011;67556;55.656;12.590;2023-03-11T10:00:38;2.63;;;1.92;;
78298;SDS011;67556;55.656;12.590;2023-03-11T10:03:05;2.75;;;1.92;;
78298;SDS011;67556;55.656;12.590;2023-03-11T10:05:38;2.25;;;2.00;;
78298;SDS011;67556;55.656;12.590;2023-03-11T10:08:11;2.42;;;2.22;;
78298;SDS011;67556;55.656;12.590;2023-03-11T10:10:46;4.45;;;1.98;;
78298;SDS011;67556;55.656;12.590;2023-03-11T10:13:17;3.95;;;2.05;;
78298;SDS011;67556;55.656;12.590;2023-03-11T10:15:54;2.80;;;1.70;;
78298;SDS011;67556;55.656;12.590;2023-03-11T10:18:31;1.83;;;1.73;;
78298;SDS011;67556;55.656;12.590;2023-03-11T10:21:11;3.80;;;1.70;;
78298;SDS011;67556;55.656;12.590;2023-03-11T10:24:03;3.13;;;1.70;;
78298;SDS011;67556;55.656;12.590;2023-03-11T10:26:40;1.77;;;1.63;;
78298;SDS011;67556;55.656;12.590;2023-03-11T10:29:13;2.92;;;1.95;;
78298;SDS011;67556;55.656;12.590;2023-03-11T10:31:45;6.15;;;2.00;;
78298;SDS011;67556;55.656;12.590;2023-03-11T10:34:17;3.78;;;1.52;;
78298;SDS011;67556;55.656;12.590;2023-03-11T10:36:52;2.10;;;1.70;;
78298;SDS011;67556;55.656;12.590;2023-03-11T10:39:24;1.95;;;1.63;;
78298;SDS011;67556;55.656;12.590;2023-03-11T10:41:51;1.65;;;1.52;;
78298;SDS011;67556;55.656;12.590;2023-03-11T10:44:21;2.05;;;1.85;;
78298;SDS011;67556;55.656;12.590;2023-03-11T10:46:52;1.88;;;1.52;;
78298;SDS011;67556;55.656;12.590;2023-03-11T10:49:18;1.73;;;1.60;;
78298;SDS011;67556;55.656;12.590;2023-03-11T10:51:46;2.28;;;1.63;;
78298;SDS011;67556;55.656;12.590;2023-03-11T10:54:23;2.20;;;1.70;;
78298;SDS011;67556;55.656;12.590;2023-03-11T10:56:54;3.60;;;1.83;;
78298;SDS011;67556;55.656;12.590;2023-03-11T10:59:23;4.57;;;1.90;;
78298;SDS011;67556;55.656;12.590;2023-03-11T11:01:53;2.38;;;1.73;;
78298;SDS011;67556;55.656;12.590;2023-03-11T11:04:26;3.75;;;2.65;;
78298;SDS011;67556;55.656;12.590;2023-03-11T11:06:55;2.50;;;2.03;;
78298;SDS011;67556;55.656;12.590;2023-03-11T11:09:24;3.40;;;2.40;;
78298;SDS011;67556;55.656;12.590;2023-03-11T11:12:02;3.88;;;2.13;;
78298;SDS011;67556;55.656;12.590;2023-03-11T11:14:40;4.10;;;2.75;;
78298;SDS011;67556;55.656;12.590;2023-03-11T11:17:17;5.40;;;2.30;;
78298;SDS011;67556;55.656;12.590;2023-03-11T11:19:45;2.72;;;2.28;;
78298;SDS011;67556;55.656;12.590;2023-03-11T11:22:15;3.33;;;2.33;;
78298;SDS011;67556;55.656;12.590;2023-03-11T11:27:16;3.85;;;2.20;;
78298;SDS011;67556;55.656;12.590;2023-03-11T11:29:44;3.92;;;2.13;;
78298;SDS011;67556;55.656;12.590;2023-03-11T11:32:19;4.47;;;2.22;;
78298;SDS011;67556;55.656;12.590;2023-03-11T11:34:55;4.20;;;2.25;;
78298;SDS011;67556;55.656;12.590;2023-03-11T11:37:24;3.22;;;2.50;;
78298;SDS011;67556;55.656;12.590;2023-03-11T11:39:58;3.70;;;2.47;;
78298;SDS011;67556;55.656;12.590;2023-03-11T11:42:33;3.28;;;2.25;;
78298;SDS011;67556;55.656;12.590;2023-03-11T11:45:03;3.40;;;2.42;;
78298;SDS011;67556;55.656;12.590;2023-03-11T11:47:35;2.72;;;2.53;;
78298;SDS011;67556;55.656;12.590;2023-03-11T11:50:05;3.53;;;2.75;;
78298;SDS011;67556;55.656;12.590;2023-03-11T11:52:41;2.35;;;1.83;;
78298;SDS011;67556;55.656;12.590;2023-03-11T11:55:17;2.67;;;2.38;;
78298;SDS011;67556;55.656;12.590;2023-03-11T11:57:46;2.33;;;1.90;;
78298;SDS011;67556;55.656;12.590;2023-03-11T12:00:16;2.92;;;2.10;;
78298;SDS011;67556;55.656;12.590;2023-03-11T12:02:52;2.72;;;1.90;;
78298;SDS011;67556;55.656;12.590;2023-03-11T12:05:28;2.75;;;1.90;;
78298;SDS011;67556;55.656;12.590;2023-03-11T12:07:59;3.88;;;2.03;;
78298;SDS011;67556;55.656;12.590;2023-03-11T12:10:36;3.00;;;1.60;;
78298;SDS011;67556;55.656;12.590;2023-03-11T12:13:24;2.17;;;1.73;;
78298;SDS011;67556;55.656;12.590;2023-03-11T12:16:04;1.70;;;1.60;;
78298;SDS011;67556;55.656;12.590;2023-03-11T12:18:41;2.08;;;1.88;;
78298;SDS011;67556;55.656;12.590;2023-03-11T12:21:16;1.60;;;1.50;;
78298;SDS011;67556;55.656;12.590;2023-03-11T12:23:59;2.85;;;1.63;;
78298;SDS011;67556;55.656;12.590;2023-03-11T12:26:38;2.10;;;1.88;;
78298;SDS011;67556;55.656;12.590;2023-03-11T12:29:10;2.20;;;1.55;;
78298;SDS011;67556;55.656;12.590;2023-03-11T12:31:43;3.17;;;1.70;;
78298;SDS011;67556;55.656;12.590;2023-03-11T12:34:11;1.45;;;1.35;;
78298;SDS011;67556;55.656;12.590;2023-03-11T12:36:41;1.90;;;1.75;;
78298;SDS011;67556;55.656;12.590;2023-03-11T12:39:18;2.00;;;1.80;;
78298;SDS011;67556;55.656;12.590;2023-03-11T12:41:49;2.17;;;1.65;;
78298;SDS011;67556;55.656;12.590;2023-03-11T12:44:42;1.83;;;1.67;;
78298;SDS011;67556;55.656;12.590;2023-03-11T12:47:16;1.98;;;1.70;;
78298;SDS011;67556;55.656;12.590;2023-03-11T12:49:48;3.90;;;1.90;;
78298;SDS011;67556;55.656;12.590;2023-03-11T12:52:20;2.25;;;1.63;;
78298;SDS011;67556;55.656;12.590;2023-03-11T12:54:49;4.03;;;1.90;;
78298;SDS011;67556;55.656;12.590;2023-03-11T13:01:23;1.70;;;1.60;;
78298;SDS011;67556;55.656;12.590;2023-03-11T13:03:59;2.10;;;1.60;;
78298;SDS011;67556;55.656;12.590;2023-03-11T13:06:42;4.60;;;2.03;;
78298;SDS011;67556;55.656;12.590;2023-03-11T13:09:27;2.10;;;1.83;;
78298;SDS011;67556;55.656;12.590;2023-03-11T13:11:54;1.60;;;1.50;;
78298;SDS011;67556;55.656;12.590;2023-03-11T13:14:25;2.08;;;1.80;;
78298;SDS011;67556;55.656;12.590;2023-03-11T13:16:54;3.42;;;1.83;;
78298;SDS011;67556;55.656;12.590;2023-03-11T13:19:35;3.58;;;1.98;;
78298;SDS011;67556;55.656;12.590;2023-03-11T13:25:27;10.80;;;4.78;;
78298;SDS011;67556;55.656;12.590;2023-03-11T13:28:02;2.40;;;1.58;;
78298;SDS011;67556;55.656;12.590;2023-03-11T13:30:44;4.35;;;1.60;;
78298;SDS011;67556;55.656;12.590;2023-03-11T13:33:20;2.50;;;2.10;;
78298;SDS011;67556;55.656;12.590;2023-03-11T13:36:13;2.67;;;1.65;;
78298;SDS011;67556;55.656;12.590;2023-03-11T13:39:00;2.67;;;1.70;;
78298;SDS011;67556;55.656;12.590;2023-03-11T13:41:46;2.00;;;1.85;;
78298;SDS011;67556;55.656;12.590;2023-03-11T13:44:15;2.88;;;2.10;;
78298;SDS011;67556;55.656;12.590;2023-03-11T13:46:51;2.60;;;1.85;;
78298;SDS011;67556;55.656;12.590;2023-03-11T13:49:27;1.85;;;1.50;;
78298;SDS011;67556;55.656;12.590;2023-03-11T13:51:58;2.38;;;1.40;;
78298;SDS011;67556;55.656;12.590;2023-03-11T13:54:33;1.90;;;1.73;;
78298;SDS011;67556;55.656;12.590;2023-03-11T13:57:04;3.30;;;1.95;;
78298;SDS011;67556;55.656;12.590;2023-03-11T13:59:31;2.08;;;1.88;;
78298;SDS011;67556;55.656;12.590;2023-03-11T14:02:03;2.05;;;1.40;;
78298;SDS011;67556;55.656;12.590;2023-03-11T14:04:41;2.22;;;2.03;;
78298;SDS011;67556;55.656;12.590;2023-03-11T14:07:13;2.53;;;1.98;;
78298;SDS011;67556;55.656;12.590;2023-03-11T14:09:45;2.25;;;1.75;;
78298;SDS011;67556;55.656;12.590;2023-03-11T14:12:11;2.53;;;1.77;;
78298;SDS011;67556;55.656;12.590;2023-03-11T14:14:41;2.35;;;1.83;;
78298;SDS011;67556;55.656;12.590;2023-03-11T14:17:14;2.50;;;1.60;;
78298;SDS011;67556;55.656;12.590;2023-03-11T14:19:42;4.07;;;1.95;;
78298;SDS011;67556;55.656;12.590;2023-03-11T14:22:28;1.58;;;1.45;;
78298;SDS011;67556;55.656;12.590;2023-03-11T14:24:56;3.38;;;1.73;;
78298;SDS011;67556;55.656;12.590;2023-03-11T14:27:23;1.98;;;1.70;;
78298;SDS011;67556;55.656;12.590;2023-03-11T14:29:49;2.65;;;2.17;;
78298;SDS011;67556;55.656;12.590;2023-03-11T14:32:22;4.20;;;1.95;;
78298;SDS011;67556;55.656;12.590;2023-03-11T14:34:51;4.00;;;2.60;;
78298;SDS011;67556;55.656;12.590;2023-03-11T14:37:23;2.45;;;1.95;;
78298;SDS011;67556;55.656;12.590;2023-03-11T14:39:51;2.10;;;1.90;;
78298;SDS011;67556;55.656;12.590;2023-03-11T14:42:20;2.83;;;2.22;;
78298;SDS011;67556;55.656;12.590;2023-03-11T14:44:52;3.38;;;2.20;;
78298;SDS011;67556;55.656;12.590;2023-03-11T14:47:29;3.28;;;1.92;;
78298;SDS011;67556;55.656;12.590;2023-03-11T14:50:00;4.22;;;2.10;;
78298;SDS011;67556;55.656;12.590;2023-03-11T14:52:31;3.90;;;2.15;;
78298;SDS011;67556;55.656;12.590;2023-03-11T14:55:01;3.20;;;1.90;;
78298;SDS011;67556;55.656;12.590;2023-03-11T14:57:33;2.97;;;2.30;;
78298;SDS011;67556;55.656;12.590;2023-03-11T15:00:03;2.65;;;1.95;;
78298;SDS011;67556;55.656;12.590;2023-03-11T15:05:38;4.15;;;2.72;;
78298;SDS011;67556;55.656;12.590;2023-03-11T15:08:12;2.25;;;2.03;;
78298;SDS011;67556;55.656;12.590;2023-03-11T15:13:29;4.28;;;2.20;;